Saturday, November 1, 2014, 1:13 AM EDT

KESN, Easton / Newman Field

Location: Easton, MD, United States Lat: 38.8
Local Time: 1:13 AM EDT ( 5:13 GMT) Lon: -76.067
Time Zone: US/Eastern Elev: 72 ft

Show me the last for .
Show Decoded

2014-11-01 00:51 METAR KESN 010451Z AUTO 01003KT 10SM SCT032 BKN039 OVC049 10/05 A2982 RMK AO2
                 T00960052 =
2014-11-01 00:26 METAR KESN 010431Z AUTO 02006KT 10SM SCT034 BKN041 OVC047 10/05 A2982 =
2014-11-01 00:26 METAR KESN 010431Z AUTO 02006KT 10SM SCT034 BKN041 OVC047 10/05 A2982 RMK AO2
                 T00960051 =
2014-10-31 23:27 METAR KESN 010331Z AUTO 01006KT 10SM SCT043 BKN060 09/05 A2985 =
2014-10-31 23:27 METAR KESN 010331Z AUTO 01006KT 10SM SCT043 BKN060 09/05 A2985 RMK AO2 T00920052
                 =
2014-10-31 23:11 METAR KESN 010311Z AUTO 02004KT 10SM SCT043 SCT048 BKN060 09/05 A2986 =
2014-10-31 23:06 METAR KESN 010311Z AUTO 02004KT 10SM SCT043 SCT048 BKN060 09/05 A2986 RMK AO2
                 T00900053 =
2014-10-31 22:51 METAR KESN 010251Z AUTO 35003KT 10SM SCT048 BKN060 09/06 A2987 RMK AO2 T00870055
                 =
2014-10-31 19:50 METAR KESN 312350Z 02005KT 10SM SKC 08/04 A2989 =
2014-10-31 18:50 METAR KESN 312250Z 05005KT 10SM FEW050 09/04 A2990 =
2014-10-31 17:50 METAR KESN 312150Z 04006KT 10SM FEW050 11/04 A2989 =
2014-10-31 16:50 METAR KESN 312050Z 01005KT 10SM FEW080 13/03 A2989 =
2014-10-31 15:50 METAR KESN 311950Z 02007KT 10SM FEW080 14/02 A2989 =
2014-10-31 14:50 METAR KESN 311850Z 02008KT 10SM FEW080 14/02 A2991 =
2014-10-31 13:50 METAR KESN 311750Z 05008KT 10SM FEW080 14/02 A2994 =
2014-10-31 12:50 METAR KESN 311650Z 06008KT 10SM FEW080 14/02 A2996 =
2014-10-31 11:50 METAR KESN 311550Z 02004KT 10SM OVC080 12/04 A2998 =
2014-10-31 10:50 METAR KESN 311450Z 05005KT 10SM OVC080 11/04 A3001 =
2014-10-31 09:50 METAR KESN 311350Z 07008KT 10SM OVC080 10/04 A3002 =
2014-10-31 08:55 METAR KESN 311255Z 06006KT 10SM OVC130 07/05 A3003 =
2014-10-31 06:50 METAR KESN 311050Z 07006KT 10SM OVC060 08/04 A3003 =
2014-10-31 06:26 METAR KESN 311027Z AUTO 08005KT 10SM OVC060 07/05 A3004 =
2014-10-31 06:22 METAR KESN 311027Z AUTO 08005KT 10SM OVC060 07/05 A3004 RMK AO2 T00740052 =
2014-10-31 06:09 METAR KESN 311009Z AUTO 07005KT 10SM OVC060 08/05 A3004 RMK AO2 T00750054 =
2014-10-31 06:08 METAR KESN 311009Z AUTO 07005KT 10SM OVC060 08/05 A3004 =
2014-10-31 05:50 METAR KESN 310950Z 06004KT 10SM OVC060 08/05 A3004 =
2014-10-31 05:49 METAR KESN 310949Z AUTO 00000KT 10SM OVC060 08/05 A3005 =
2014-10-31 05:25 METAR KESN 310929Z AUTO 00000KT 10SM OVC060 07/06 A3005 =
2014-10-31 05:23 METAR KESN 310929Z AUTO 00000KT 10SM OVC060 07/06 A3005 RMK AO2 T00720062 =
2014-10-31 05:09 METAR KESN 310909Z AUTO 00000KT 10SM OVC060 07/07 A3004 RMK AO2 T00670067 =
2014-10-31 05:08 METAR KESN 310909Z AUTO 00000KT 10SM OVC060 07/07 A3004 =
2014-10-31 04:49 METAR KESN 310849Z AUTO 00000KT 10SM OVC060 06/06 A3004 =
2014-10-31 04:27 METAR KESN 310829Z AUTO 00000KT 10SM OVC060 06/06 A3004 =
2014-10-31 04:24 METAR KESN 310829Z AUTO 00000KT 10SM OVC060 06/06 A3004 RMK AO2 T00550055 =
2014-10-31 04:08 METAR KESN 310808Z AUTO 00000KT 10SM BKN060 06/05 A3004 =
2014-10-31 04:07 METAR KESN 310808Z AUTO 00000KT 10SM BKN060 06/05 A3004 RMK AO2 T00600047 =
2014-10-31 03:26 METAR KESN 310728Z AUTO 00000KT 10SM CLR 06/05 A3004 =
2014-10-31 03:22 METAR KESN 310728Z AUTO 00000KT 10SM CLR 06/05 A3004 RMK AO2 T00620045 =
2014-10-31 03:08 METAR KESN 310708Z AUTO 00000KT 10SM CLR 07/05 A3004 =
2014-10-31 03:07 METAR KESN 310708Z AUTO 00000KT 10SM CLR 07/05 A3004 RMK AO2 T00660049 =
2014-10-31 02:48 METAR KESN 310648Z AUTO 00000KT 10SM CLR 06/05 A3004 =
2014-10-31 02:27 METAR KESN 310628Z AUTO 00000KT 10SM CLR 07/05 A3005 =
2014-10-31 02:24 METAR KESN 310628Z AUTO 00000KT 10SM CLR 07/05 A3005 RMK AO2 T00700050 =
2014-10-31 02:08 METAR KESN 310608Z AUTO 06004KT 10SM CLR 07/05 A3005 =
2014-10-31 02:07 METAR KESN 310608Z AUTO 06004KT 10SM CLR 07/05 A3005 RMK AO2 T00650046 =
2014-10-31 01:48 METAR KESN 310548Z AUTO 00000KT 10SM CLR 08/06 A3006 =
2014-10-31 01:26 METAR KESN 310528Z AUTO 00000KT 10SM CLR 07/05 A3006 =
2014-10-31 01:23 METAR KESN 310528Z AUTO 00000KT 10SM CLR 07/05 A3006 RMK AO2 T00700051 =

Support USWX by starting your Amazon purchase here.